sensor_id;sensor_type;location;lat;lon;timestamp;P1;durP1;ratioP1;P2;durP2;ratioP2
73670;SDS011;61968;48.178;11.566;2024-03-08T00:00:53;10.02;;;5.30;;
73670;SDS011;61968;48.178;11.566;2024-03-08T00:03:20;12.90;;;6.97;;
73670;SDS011;61968;48.178;11.566;2024-03-08T00:05:46;12.05;;;5.72;;
73670;SDS011;61968;48.178;11.566;2024-03-08T00:08:13;11.80;;;6.45;;
73670;SDS011;61968;48.178;11.566;2024-03-08T00:10:40;10.00;;;5.45;;
73670;SDS011;61968;48.178;11.566;2024-03-08T00:13:08;10.77;;;5.38;;
73670;SDS011;61968;48.178;11.566;2024-03-08T00:15:34;11.63;;;5.68;;
73670;SDS011;61968;48.178;11.566;2024-03-08T00:18:01;9.02;;;5.13;;
73670;SDS011;61968;48.178;11.566;2024-03-08T00:20:27;9.52;;;5.13;;
73670;SDS011;61968;48.178;11.566;2024-03-08T00:22:54;12.30;;;6.85;;
73670;SDS011;61968;48.178;11.566;2024-03-08T00:25:23;12.77;;;6.05;;
73670;SDS011;61968;48.178;11.566;2024-03-08T00:27:49;11.07;;;5.32;;
73670;SDS011;61968;48.178;11.566;2024-03-08T00:30:17;10.85;;;5.35;;
73670;SDS011;61968;48.178;11.566;2024-03-08T00:32:44;12.15;;;7.05;;
73670;SDS011;61968;48.178;11.566;2024-03-08T00:35:11;8.30;;;5.18;;
73670;SDS011;61968;48.178;11.566;2024-03-08T00:37:37;10.02;;;6.05;;
73670;SDS011;61968;48.178;11.566;2024-03-08T00:40:04;12.55;;;5.50;;
73670;SDS011;61968;48.178;11.566;2024-03-08T00:42:34;10.27;;;5.00;;
73670;SDS011;61968;48.178;11.566;2024-03-08T00:45:01;9.40;;;4.65;;
73670;SDS011;61968;48.178;11.566;2024-03-08T00:47:29;9.13;;;5.05;;
73670;SDS011;61968;48.178;11.566;2024-03-08T00:49:55;13.85;;;7.50;;
73670;SDS011;61968;48.178;11.566;2024-03-08T00:52:22;12.85;;;5.82;;
73670;SDS011;61968;48.178;11.566;2024-03-08T00:54:50;10.90;;;5.93;;
73670;SDS011;61968;48.178;11.566;2024-03-08T00:59:42;13.80;;;5.68;;
73670;SDS011;61968;48.178;11.566;2024-03-08T01:02:09;10.15;;;4.68;;
73670;SDS011;61968;48.178;11.566;2024-03-08T01:04:37;10.43;;;5.68;;
73670;SDS011;61968;48.178;11.566;2024-03-08T01:07:04;8.70;;;4.70;;
73670;SDS011;61968;48.178;11.566;2024-03-08T01:09:30;8.70;;;5.28;;
73670;SDS011;61968;48.178;11.566;2024-03-08T01:11:57;11.23;;;5.97;;
73670;SDS011;61968;48.178;11.566;2024-03-08T01:14:24;12.07;;;5.35;;
73670;SDS011;61968;48.178;11.566;2024-03-08T01:16:58;12.13;;;5.93;;
73670;SDS011;61968;48.178;11.566;2024-03-08T01:19:24;10.30;;;4.65;;
73670;SDS011;61968;48.178;11.566;2024-03-08T01:24:20;14.82;;;6.97;;
73670;SDS011;61968;48.178;11.566;2024-03-08T01:26:47;12.20;;;4.97;;
73670;SDS011;61968;48.178;11.566;2024-03-08T01:31:40;13.77;;;5.93;;
73670;SDS011;61968;48.178;11.566;2024-03-08T01:34:06;11.48;;;6.18;;
73670;SDS011;61968;48.178;11.566;2024-03-08T01:36:32;15.70;;;6.07;;
73670;SDS011;61968;48.178;11.566;2024-03-08T01:39:00;9.20;;;5.70;;
73670;SDS011;61968;48.178;11.566;2024-03-08T01:41:27;11.00;;;5.35;;
73670;SDS011;61968;48.178;11.566;2024-03-08T01:43:54;13.38;;;5.53;;
73670;SDS011;61968;48.178;11.566;2024-03-08T01:46:21;12.02;;;5.55;;
73670;SDS011;61968;48.178;11.566;2024-03-08T01:48:48;10.73;;;6.10;;
73670;SDS011;61968;48.178;11.566;2024-03-08T01:51:31;13.30;;;5.25;;
73670;SDS011;61968;48.178;11.566;2024-03-08T01:56:26;11.40;;;5.60;;
73670;SDS011;61968;48.178;11.566;2024-03-08T01:58:52;11.23;;;5.80;;
73670;SDS011;61968;48.178;11.566;2024-03-08T02:01:20;12.43;;;6.50;;
73670;SDS011;61968;48.178;11.566;2024-03-08T02:06:13;14.15;;;5.95;;
73670;SDS011;61968;48.178;11.566;2024-03-08T02:08:41;12.50;;;5.75;;
73670;SDS011;61968;48.178;11.566;2024-03-08T02:11:08;14.77;;;6.20;;
73670;SDS011;61968;48.178;11.566;2024-03-08T02:13:36;12.00;;;5.88;;
73670;SDS011;61968;48.178;11.566;2024-03-08T02:16:03;12.85;;;6.10;;
73670;SDS011;61968;48.178;11.566;2024-03-08T02:18:32;11.63;;;6.00;;
73670;SDS011;61968;48.178;11.566;2024-03-08T02:21:02;12.48;;;6.13;;
73670;SDS011;61968;48.178;11.566;2024-03-08T02:23:29;11.82;;;5.93;;
73670;SDS011;61968;48.178;11.566;2024-03-08T02:28:22;11.55;;;5.80;;
73670;SDS011;61968;48.178;11.566;2024-03-08T02:30:50;13.82;;;6.47;;
73670;SDS011;61968;48.178;11.566;2024-03-08T02:33:19;11.35;;;5.85;;
73670;SDS011;61968;48.178;11.566;2024-03-08T02:35:46;12.75;;;6.28;;
73670;SDS011;61968;48.178;11.566;2024-03-08T02:38:16;13.50;;;5.72;;
73670;SDS011;61968;48.178;11.566;2024-03-08T02:40:44;10.15;;;5.97;;
73670;SDS011;61968;48.178;11.566;2024-03-08T02:43:11;14.27;;;6.35;;
73670;SDS011;61968;48.178;11.566;2024-03-08T02:45:39;14.35;;;6.38;;
73670;SDS011;61968;48.178;11.566;2024-03-08T02:48:07;12.35;;;7.03;;
73670;SDS011;61968;48.178;11.566;2024-03-08T02:50:33;14.82;;;6.97;;
73670;SDS011;61968;48.178;11.566;2024-03-08T02:53:01;12.43;;;6.38;;
73670;SDS011;61968;48.178;11.566;2024-03-08T02:55:29;13.20;;;6.00;;
73670;SDS011;61968;48.178;11.566;2024-03-08T02:57:56;12.77;;;5.85;;
73670;SDS011;61968;48.178;11.566;2024-03-08T03:00:22;12.38;;;6.45;;
73670;SDS011;61968;48.178;11.566;2024-03-08T03:02:49;14.18;;;7.25;;
73670;SDS011;61968;48.178;11.566;2024-03-08T03:05:18;13.07;;;6.38;;
73670;SDS011;61968;48.178;11.566;2024-03-08T03:10:11;13.95;;;6.03;;
73670;SDS011;61968;48.178;11.566;2024-03-08T03:12:43;12.88;;;6.40;;
73670;SDS011;61968;48.178;11.566;2024-03-08T03:15:10;13.73;;;6.40;;
73670;SDS011;61968;48.178;11.566;2024-03-08T03:17:37;10.45;;;5.50;;
73670;SDS011;61968;48.178;11.566;2024-03-08T03:20:04;11.00;;;5.55;;
73670;SDS011;61968;48.178;11.566;2024-03-08T03:22:35;10.75;;;6.18;;
73670;SDS011;61968;48.178;11.566;2024-03-08T03:25:03;13.68;;;6.68;;
73670;SDS011;61968;48.178;11.566;2024-03-08T03:27:31;12.35;;;6.00;;
73670;SDS011;61968;48.178;11.566;2024-03-08T03:29:59;13.25;;;5.38;;
73670;SDS011;61968;48.178;11.566;2024-03-08T03:32:45;13.45;;;6.63;;
73670;SDS011;61968;48.178;11.566;2024-03-08T03:35:13;12.55;;;6.15;;
73670;SDS011;61968;48.178;11.566;2024-03-08T03:37:39;14.32;;;5.60;;
73670;SDS011;61968;48.178;11.566;2024-03-08T03:40:08;16.27;;;7.20;;
73670;SDS011;61968;48.178;11.566;2024-03-08T03:42:35;11.70;;;5.82;;
73670;SDS011;61968;48.178;11.566;2024-03-08T03:45:05;12.82;;;6.80;;
73670;SDS011;61968;48.178;11.566;2024-03-08T03:47:32;13.50;;;6.07;;
73670;SDS011;61968;48.178;11.566;2024-03-08T03:49:58;16.70;;;7.28;;
73670;SDS011;61968;48.178;11.566;2024-03-08T03:52:27;11.32;;;6.63;;
73670;SDS011;61968;48.178;11.566;2024-03-08T03:54:53;11.50;;;5.80;;
73670;SDS011;61968;48.178;11.566;2024-03-08T03:57:20;13.43;;;6.22;;
73670;SDS011;61968;48.178;11.566;2024-03-08T03:59:48;16.67;;;7.22;;
73670;SDS011;61968;48.178;11.566;2024-03-08T04:02:17;13.05;;;6.53;;
73670;SDS011;61968;48.178;11.566;2024-03-08T04:04:45;13.05;;;6.63;;
73670;SDS011;61968;48.178;11.566;2024-03-08T04:07:12;16.50;;;7.00;;
73670;SDS011;61968;48.178;11.566;2024-03-08T04:09:39;13.55;;;6.50;;
73670;SDS011;61968;48.178;11.566;2024-03-08T04:12:05;15.13;;;6.80;;
73670;SDS011;61968;48.178;11.566;2024-03-08T04:14:32;17.95;;;7.50;;
73670;SDS011;61968;48.178;11.566;2024-03-08T04:16:59;15.90;;;8.05;;
73670;SDS011;61968;48.178;11.566;2024-03-08T04:19:27;16.50;;;7.47;;
73670;SDS011;61968;48.178;11.566;2024-03-08T04:21:54;22.90;;;8.60;;
73670;SDS011;61968;48.178;11.566;2024-03-08T04:24:20;16.10;;;8.35;;
73670;SDS011;61968;48.178;11.566;2024-03-08T04:26:47;19.15;;;8.00;;
73670;SDS011;61968;48.178;11.566;2024-03-08T04:29:13;17.67;;;6.65;;
73670;SDS011;61968;48.178;11.566;2024-03-08T04:31:40;14.18;;;8.05;;
73670;SDS011;61968;48.178;11.566;2024-03-08T04:34:06;15.18;;;7.43;;
73670;SDS011;61968;48.178;11.566;2024-03-08T04:36:34;13.82;;;7.15;;
73670;SDS011;61968;48.178;11.566;2024-03-08T04:39:01;16.48;;;7.60;;
73670;SDS011;61968;48.178;11.566;2024-03-08T04:41:28;16.88;;;7.03;;
73670;SDS011;61968;48.178;11.566;2024-03-08T04:43:55;12.93;;;7.45;;
73670;SDS011;61968;48.178;11.566;2024-03-08T04:46:22;17.08;;;8.23;;
73670;SDS011;61968;48.178;11.566;2024-03-08T04:48:49;17.50;;;8.13;;
73670;SDS011;61968;48.178;11.566;2024-03-08T04:53:43;15.20;;;7.43;;
73670;SDS011;61968;48.178;11.566;2024-03-08T04:56:10;16.67;;;7.63;;
73670;SDS011;61968;48.178;11.566;2024-03-08T04:58:36;11.80;;;7.05;;
73670;SDS011;61968;48.178;11.566;2024-03-08T05:01:03;14.50;;;7.22;;
73670;SDS011;61968;48.178;11.566;2024-03-08T05:03:30;12.30;;;6.38;;
73670;SDS011;61968;48.178;11.566;2024-03-08T05:05:56;19.42;;;8.30;;
73670;SDS011;61968;48.178;11.566;2024-03-08T05:10:51;14.48;;;5.95;;
73670;SDS011;61968;48.178;11.566;2024-03-08T05:13:17;16.00;;;7.85;;
73670;SDS011;61968;48.178;11.566;2024-03-08T05:15:44;17.05;;;7.13;;
73670;SDS011;61968;48.178;11.566;2024-03-08T05:18:10;15.48;;;8.02;;
73670;SDS011;61968;48.178;11.566;2024-03-08T05:20:39;15.05;;;8.23;;
73670;SDS011;61968;48.178;11.566;2024-03-08T05:25:33;15.68;;;7.25;;
73670;SDS011;61968;48.178;11.566;2024-03-08T05:28:01;15.85;;;8.23;;
73670;SDS011;61968;48.178;11.566;2024-03-08T05:30:29;16.77;;;7.88;;
73670;SDS011;61968;48.178;11.566;2024-03-08T05:32:57;17.98;;;9.25;;
73670;SDS011;61968;48.178;11.566;2024-03-08T05:35:23;15.50;;;8.23;;
73670;SDS011;61968;48.178;11.566;2024-03-08T05:37:50;19.15;;;9.20;;
73670;SDS011;61968;48.178;11.566;2024-03-08T05:40:16;18.60;;;8.63;;
73670;SDS011;61968;48.178;11.566;2024-03-08T05:42:44;19.00;;;9.15;;
73670;SDS011;61968;48.178;11.566;2024-03-08T05:45:12;18.40;;;8.70;;
73670;SDS011;61968;48.178;11.566;2024-03-08T05:47:39;18.17;;;8.38;;
73670;SDS011;61968;48.178;11.566;2024-03-08T05:50:06;19.33;;;8.63;;
73670;SDS011;61968;48.178;11.566;2024-03-08T05:52:36;20.15;;;9.65;;
73670;SDS011;61968;48.178;11.566;2024-03-08T05:55:04;18.02;;;8.93;;
73670;SDS011;61968;48.178;11.566;2024-03-08T05:57:50;14.52;;;7.75;;
73670;SDS011;61968;48.178;11.566;2024-03-08T06:00:20;20.38;;;9.82;;
73670;SDS011;61968;48.178;11.566;2024-03-08T06:02:47;18.00;;;9.00;;
73670;SDS011;61968;48.178;11.566;2024-03-08T06:05:13;25.13;;;11.38;;
73670;SDS011;61968;48.178;11.566;2024-03-08T06:07:40;20.23;;;8.68;;
73670;SDS011;61968;48.178;11.566;2024-03-08T06:10:08;19.50;;;9.98;;
73670;SDS011;61968;48.178;11.566;2024-03-08T06:12:37;19.73;;;8.65;;
73670;SDS011;61968;48.178;11.566;2024-03-08T06:15:06;21.73;;;8.73;;
73670;SDS011;61968;48.178;11.566;2024-03-08T06:17:35;22.35;;;9.63;;
73670;SDS011;61968;48.178;11.566;2024-03-08T06:20:02;23.75;;;9.60;;
73670;SDS011;61968;48.178;11.566;2024-03-08T06:22:35;20.38;;;8.95;;
73670;SDS011;61968;48.178;11.566;2024-03-08T06:25:01;17.45;;;8.70;;
73670;SDS011;61968;48.178;11.566;2024-03-08T06:29:55;16.42;;;7.50;;
73670;SDS011;61968;48.178;11.566;2024-03-08T06:32:21;21.42;;;9.48;;
73670;SDS011;61968;48.178;11.566;2024-03-08T06:34:49;26.95;;;11.32;;
73670;SDS011;61968;48.178;11.566;2024-03-08T06:37:16;25.77;;;10.10;;
73670;SDS011;61968;48.178;11.566;2024-03-08T06:39:46;24.92;;;10.80;;
73670;SDS011;61968;48.178;11.566;2024-03-08T06:42:13;18.08;;;8.85;;
73670;SDS011;61968;48.178;11.566;2024-03-08T06:44:39;25.92;;;9.98;;
73670;SDS011;61968;48.178;11.566;2024-03-08T06:47:13;18.85;;;9.18;;
73670;SDS011;61968;48.178;11.566;2024-03-08T06:49:40;23.63;;;9.18;;
73670;SDS011;61968;48.178;11.566;2024-03-08T06:52:08;19.88;;;8.30;;
73670;SDS011;61968;48.178;11.566;2024-03-08T06:54:35;19.58;;;9.55;;
73670;SDS011;61968;48.178;11.566;2024-03-08T06:57:02;19.40;;;8.25;;
73670;SDS011;61968;48.178;11.566;2024-03-08T06:59:29;16.42;;;8.32;;
73670;SDS011;61968;48.178;11.566;2024-03-08T07:01:55;18.27;;;8.10;;
73670;SDS011;61968;48.178;11.566;2024-03-08T07:04:22;20.55;;;8.40;;
73670;SDS011;61968;48.178;11.566;2024-03-08T07:06:51;15.27;;;9.68;;
73670;SDS011;61968;48.178;11.566;2024-03-08T07:09:19;20.45;;;8.73;;
73670;SDS011;61968;48.178;11.566;2024-03-08T07:11:46;21.05;;;7.35;;
73670;SDS011;61968;48.178;11.566;2024-03-08T07:14:18;19.15;;;7.80;;
73670;SDS011;61968;48.178;11.566;2024-03-08T07:16:46;22.00;;;8.15;;
73670;SDS011;61968;48.178;11.566;2024-03-08T07:19:13;22.73;;;8.70;;
73670;SDS011;61968;48.178;11.566;2024-03-08T07:21:40;19.88;;;9.93;;
73670;SDS011;61968;48.178;11.566;2024-03-08T07:24:07;22.63;;;9.07;;
73670;SDS011;61968;48.178;11.566;2024-03-08T07:26:50;17.88;;;8.68;;
73670;SDS011;61968;48.178;11.566;2024-03-08T07:29:19;22.65;;;9.82;;
73670;SDS011;61968;48.178;11.566;2024-03-08T07:31:45;23.85;;;8.35;;
73670;SDS011;61968;48.178;11.566;2024-03-08T07:34:20;18.35;;;7.85;;
73670;SDS011;61968;48.178;11.566;2024-03-08T07:36:46;21.90;;;8.98;;
73670;SDS011;61968;48.178;11.566;2024-03-08T07:39:15;19.33;;;7.80;;
73670;SDS011;61968;48.178;11.566;2024-03-08T07:44:10;16.50;;;7.30;;
73670;SDS011;61968;48.178;11.566;2024-03-08T07:46:37;30.75;;;10.65;;
73670;SDS011;61968;48.178;11.566;2024-03-08T07:49:03;26.48;;;10.75;;
73670;SDS011;61968;48.178;11.566;2024-03-08T07:51:31;28.95;;;10.98;;
73670;SDS011;61968;48.178;11.566;2024-03-08T07:54:02;27.73;;;10.52;;
73670;SDS011;61968;48.178;11.566;2024-03-08T07:56:34;27.52;;;12.10;;
73670;SDS011;61968;48.178;11.566;2024-03-08T07:59:01;26.35;;;10.43;;
73670;SDS011;61968;48.178;11.566;2024-03-08T08:01:30;18.88;;;8.98;;
73670;SDS011;61968;48.178;11.566;2024-03-08T08:03:58;19.63;;;8.57;;
73670;SDS011;61968;48.178;11.566;2024-03-08T08:06:26;21.20;;;9.65;;
73670;SDS011;61968;48.178;11.566;2024-03-08T08:08:52;19.00;;;9.38;;
73670;SDS011;61968;48.178;11.566;2024-03-08T08:11:20;22.60;;;8.48;;
73670;SDS011;61968;48.178;11.566;2024-03-08T08:13:46;24.27;;;10.68;;
73670;SDS011;61968;48.178;11.566;2024-03-08T08:16:13;23.83;;;9.27;;
73670;SDS011;61968;48.178;11.566;2024-03-08T08:18:41;26.77;;;10.35;;
73670;SDS011;61968;48.178;11.566;2024-03-08T08:21:07;21.10;;;8.98;;
73670;SDS011;61968;48.178;11.566;2024-03-08T08:23:34;20.70;;;9.07;;
73670;SDS011;61968;48.178;11.566;2024-03-08T08:28:28;21.15;;;8.95;;
73670;SDS011;61968;48.178;11.566;2024-03-08T08:30:55;20.25;;;9.45;;
73670;SDS011;61968;48.178;11.566;2024-03-08T08:35:51;25.25;;;10.38;;
73670;SDS011;61968;48.178;11.566;2024-03-08T08:38:19;20.48;;;9.85;;
73670;SDS011;61968;48.178;11.566;2024-03-08T08:40:45;21.27;;;9.02;;
73670;SDS011;61968;48.178;11.566;2024-03-08T08:43:12;19.88;;;8.93;;
73670;SDS011;61968;48.178;11.566;2024-03-08T08:48:06;16.55;;;7.60;;
73670;SDS011;61968;48.178;11.566;2024-03-08T08:50:32;20.48;;;8.05;;
73670;SDS011;61968;48.178;11.566;2024-03-08T08:53:00;18.38;;;9.07;;
73670;SDS011;61968;48.178;11.566;2024-03-08T08:55:28;21.17;;;8.70;;
73670;SDS011;61968;48.178;11.566;2024-03-08T08:57:56;20.30;;;8.90;;
73670;SDS011;61968;48.178;11.566;2024-03-08T09:00:22;28.80;;;10.57;;
73670;SDS011;61968;48.178;11.566;2024-03-08T09:02:52;20.92;;;9.65;;
73670;SDS011;61968;48.178;11.566;2024-03-08T09:05:20;20.42;;;8.60;;
73670;SDS011;61968;48.178;11.566;2024-03-08T09:07:49;19.58;;;9.02;;
73670;SDS011;61968;48.178;11.566;2024-03-08T09:10:17;22.63;;;9.80;;
73670;SDS011;61968;48.178;11.566;2024-03-08T09:12:44;20.60;;;9.07;;
73670;SDS011;61968;48.178;11.566;2024-03-08T09:15:10;22.35;;;9.38;;
73670;SDS011;61968;48.178;11.566;2024-03-08T09:17:37;21.20;;;8.82;;
73670;SDS011;61968;48.178;11.566;2024-03-08T09:20:05;22.75;;;8.95;;
73670;SDS011;61968;48.178;11.566;2024-03-08T09:22:33;23.08;;;9.05;;
73670;SDS011;61968;48.178;11.566;2024-03-08T09:25:00;19.08;;;9.45;;
73670;SDS011;61968;48.178;11.566;2024-03-08T09:29:58;25.30;;;9.70;;
73670;SDS011;61968;48.178;11.566;2024-03-08T09:32:26;23.10;;;10.93;;
73670;SDS011;61968;48.178;11.566;2024-03-08T09:37:19;23.55;;;9.60;;
73670;SDS011;61968;48.178;11.566;2024-03-08T09:39:45;26.52;;;10.95;;
73670;SDS011;61968;48.178;11.566;2024-03-08T09:42:12;24.65;;;10.50;;
73670;SDS011;61968;48.178;11.566;2024-03-08T09:44:41;23.65;;;9.75;;
73670;SDS011;61968;48.178;11.566;2024-03-08T09:47:10;20.15;;;9.18;;
73670;SDS011;61968;48.178;11.566;2024-03-08T09:49:39;25.17;;;10.25;;
73670;SDS011;61968;48.178;11.566;2024-03-08T09:52:06;23.40;;;9.88;;
73670;SDS011;61968;48.178;11.566;2024-03-08T09:54:34;28.50;;;11.27;;
73670;SDS011;61968;48.178;11.566;2024-03-08T09:57:01;24.30;;;10.00;;
73670;SDS011;61968;48.178;11.566;2024-03-08T09:59:29;40.22;;;12.40;;
73670;SDS011;61968;48.178;11.566;2024-03-08T10:02:12;25.63;;;9.23;;
73670;SDS011;61968;48.178;11.566;2024-03-08T10:04:41;27.77;;;12.25;;
73670;SDS011;61968;48.178;11.566;2024-03-08T10:07:08;19.95;;;8.43;;
73670;SDS011;61968;48.178;11.566;2024-03-08T10:09:34;24.17;;;9.90;;
73670;SDS011;61968;48.178;11.566;2024-03-08T10:12:01;16.23;;;7.75;;
73670;SDS011;61968;48.178;11.566;2024-03-08T10:14:28;19.40;;;7.75;;
73670;SDS011;61968;48.178;11.566;2024-03-08T10:16:54;20.55;;;9.80;;
73670;SDS011;61968;48.178;11.566;2024-03-08T10:19:26;24.98;;;10.50;;
73670;SDS011;61968;48.178;11.566;2024-03-08T10:21:53;22.73;;;9.95;;
73670;SDS011;61968;48.178;11.566;2024-03-08T10:24:22;19.38;;;9.10;;
73670;SDS011;61968;48.178;11.566;2024-03-08T10:26:51;18.55;;;9.23;;
73670;SDS011;61968;48.178;11.566;2024-03-08T10:29:18;21.60;;;8.75;;
73670;SDS011;61968;48.178;11.566;2024-03-08T10:31:45;18.42;;;8.77;;
73670;SDS011;61968;48.178;11.566;2024-03-08T10:34:11;20.80;;;8.63;;
73670;SDS011;61968;48.178;11.566;2024-03-08T10:36:40;20.58;;;10.30;;
73670;SDS011;61968;48.178;11.566;2024-03-08T10:39:17;23.85;;;9.45;;
73670;SDS011;61968;48.178;11.566;2024-03-08T10:41:49;32.80;;;12.45;;
73670;SDS011;61968;48.178;11.566;2024-03-08T10:44:22;23.20;;;9.45;;
73670;SDS011;61968;48.178;11.566;2024-03-08T10:47:00;24.88;;;10.38;;
73670;SDS011;61968;48.178;11.566;2024-03-08T10:49:30;14.73;;;7.28;;
73670;SDS011;61968;48.178;11.566;2024-03-08T10:52:03;14.75;;;7.80;;
73670;SDS011;61968;48.178;11.566;2024-03-08T10:54:35;18.85;;;8.20;;
73670;SDS011;61968;48.178;11.566;2024-03-08T10:57:05;19.17;;;8.35;;
73670;SDS011;61968;48.178;11.566;2024-03-08T10:59:33;21.63;;;9.98;;
73670;SDS011;61968;48.178;11.566;2024-03-08T11:02:00;18.23;;;8.80;;
73670;SDS011;61968;48.178;11.566;2024-03-08T11:04:27;18.15;;;8.80;;
73670;SDS011;61968;48.178;11.566;2024-03-08T11:09:29;16.40;;;7.72;;
73670;SDS011;61968;48.178;11.566;2024-03-08T11:14:55;18.48;;;8.32;;
73670;SDS011;61968;48.178;11.566;2024-03-08T11:17:26;19.58;;;8.85;;
73670;SDS011;61968;48.178;11.566;2024-03-08T11:20:08;21.15;;;7.72;;
73670;SDS011;61968;48.178;11.566;2024-03-08T11:22:40;16.58;;;7.65;;
73670;SDS011;61968;48.178;11.566;2024-03-08T11:25:30;18.73;;;8.18;;
73670;SDS011;61968;48.178;11.566;2024-03-08T11:28:08;20.02;;;8.27;;
73670;SDS011;61968;48.178;11.566;2024-03-08T11:30:41;18.02;;;7.47;;
73670;SDS011;61968;48.178;11.566;2024-03-08T11:33:10;16.40;;;7.68;;
73670;SDS011;61968;48.178;11.566;2024-03-08T11:35:38;20.25;;;8.05;;
73670;SDS011;61968;48.178;11.566;2024-03-08T11:38:05;16.45;;;8.00;;
73670;SDS011;61968;48.178;11.566;2024-03-08T11:40:33;17.95;;;9.05;;
73670;SDS011;61968;48.178;11.566;2024-03-08T11:43:00;16.27;;;7.38;;
73670;SDS011;61968;48.178;11.566;2024-03-08T11:45:28;14.13;;;6.60;;
73670;SDS011;61968;48.178;11.566;2024-03-08T11:47:55;13.30;;;7.05;;
73670;SDS011;61968;48.178;11.566;2024-03-08T11:50:21;17.50;;;7.43;;
73670;SDS011;61968;48.178;11.566;2024-03-08T11:52:48;22.38;;;8.38;;
73670;SDS011;61968;48.178;11.566;2024-03-08T11:55:15;20.10;;;8.65;;
73670;SDS011;61968;48.178;11.566;2024-03-08T11:57:45;14.40;;;7.55;;
73670;SDS011;61968;48.178;11.566;2024-03-08T12:00:14;15.43;;;7.90;;
73670;SDS011;61968;48.178;11.566;2024-03-08T12:03:00;17.20;;;7.03;;
73670;SDS011;61968;48.178;11.566;2024-03-08T12:05:27;17.20;;;8.43;;
73670;SDS011;61968;48.178;11.566;2024-03-08T12:07:55;19.52;;;7.82;;
73670;SDS011;61968;48.178;11.566;2024-03-08T12:10:22;19.33;;;8.50;;
73670;SDS011;61968;48.178;11.566;2024-03-08T12:12:51;14.48;;;7.47;;
73670;SDS011;61968;48.178;11.566;2024-03-08T12:15:19;17.23;;;7.72;;
73670;SDS011;61968;48.178;11.566;2024-03-08T12:17:49;27.35;;;12.30;;
73670;SDS011;61968;48.178;11.566;2024-03-08T12:20:17;23.00;;;8.93;;
73670;SDS011;61968;48.178;11.566;2024-03-08T12:22:46;14.85;;;7.30;;
73670;SDS011;61968;48.178;11.566;2024-03-08T12:25:14;22.92;;;9.10;;
73670;SDS011;61968;48.178;11.566;2024-03-08T12:27:41;17.33;;;7.57;;
73670;SDS011;61968;48.178;11.566;2024-03-08T12:30:17;13.55;;;7.00;;
73670;SDS011;61968;48.178;11.566;2024-03-08T12:32:47;15.65;;;7.30;;
73670;SDS011;61968;48.178;11.566;2024-03-08T12:35:19;16.67;;;7.30;;
73670;SDS011;61968;48.178;11.566;2024-03-08T12:37:47;16.90;;;7.90;;
73670;SDS011;61968;48.178;11.566;2024-03-08T12:40:19;15.85;;;8.10;;
73670;SDS011;61968;48.178;11.566;2024-03-08T12:42:52;17.70;;;8.40;;
73670;SDS011;61968;48.178;11.566;2024-03-08T12:45:19;13.73;;;6.72;;
73670;SDS011;61968;48.178;11.566;2024-03-08T12:47:47;17.70;;;7.75;;
73670;SDS011;61968;48.178;11.566;2024-03-08T12:50:14;14.93;;;7.20;;
73670;SDS011;61968;48.178;11.566;2024-03-08T12:52:41;13.90;;;7.55;;
73670;SDS011;61968;48.178;11.566;2024-03-08T12:55:08;16.45;;;7.95;;
73670;SDS011;61968;48.178;11.566;2024-03-08T12:57:35;15.95;;;7.13;;
73670;SDS011;61968;48.178;11.566;2024-03-08T13:00:02;14.60;;;7.25;;
73670;SDS011;61968;48.178;11.566;2024-03-08T13:02:31;13.27;;;6.80;;
73670;SDS011;61968;48.178;11.566;2024-03-08T13:04:58;14.48;;;6.70;;
73670;SDS011;61968;48.178;11.566;2024-03-08T13:07:25;17.67;;;7.90;;
73670;SDS011;61968;48.178;11.566;2024-03-08T13:09:52;14.60;;;7.05;;
73670;SDS011;61968;48.178;11.566;2024-03-08T13:12:19;15.35;;;7.53;;
73670;SDS011;61968;48.178;11.566;2024-03-08T13:14:46;11.23;;;6.55;;
73670;SDS011;61968;48.178;11.566;2024-03-08T13:17:13;12.70;;;6.70;;
73670;SDS011;61968;48.178;11.566;2024-03-08T13:19:41;13.15;;;7.20;;
73670;SDS011;61968;48.178;11.566;2024-03-08T13:22:08;18.27;;;6.45;;
73670;SDS011;61968;48.178;11.566;2024-03-08T13:24:37;12.50;;;6.85;;
73670;SDS011;61968;48.178;11.566;2024-03-08T13:27:06;15.70;;;6.78;;
73670;SDS011;61968;48.178;11.566;2024-03-08T13:29:44;14.27;;;7.20;;
73670;SDS011;61968;48.178;11.566;2024-03-08T13:32:14;11.98;;;6.53;;
73670;SDS011;61968;48.178;11.566;2024-03-08T13:34:43;16.70;;;7.45;;
73670;SDS011;61968;48.178;11.566;2024-03-08T13:37:10;18.42;;;8.13;;
73670;SDS011;61968;48.178;11.566;2024-03-08T13:39:41;12.27;;;7.30;;
73670;SDS011;61968;48.178;11.566;2024-03-08T13:42:09;12.90;;;7.22;;
73670;SDS011;61968;48.178;11.566;2024-03-08T13:47:10;13.43;;;6.78;;
73670;SDS011;61968;48.178;11.566;2024-03-08T13:49:38;14.77;;;7.18;;
73670;SDS011;61968;48.178;11.566;2024-03-08T13:52:06;12.48;;;6.68;;
73670;SDS011;61968;48.178;11.566;2024-03-08T13:54:34;14.77;;;6.60;;
73670;SDS011;61968;48.178;11.566;2024-03-08T13:57:01;13.63;;;6.88;;
73670;SDS011;61968;48.178;11.566;2024-03-08T13:59:29;13.65;;;6.97;;
73670;SDS011;61968;48.178;11.566;2024-03-08T14:01:57;13.70;;;6.88;;
73670;SDS011;61968;48.178;11.566;2024-03-08T14:04:24;12.13;;;6.65;;
73670;SDS011;61968;48.178;11.566;2024-03-08T14:06:52;14.50;;;7.55;;
73670;SDS011;61968;48.178;11.566;2024-03-08T14:09:25;11.57;;;6.88;;
73670;SDS011;61968;48.178;11.566;2024-03-08T14:11:57;12.82;;;6.95;;
73670;SDS011;61968;48.178;11.566;2024-03-08T14:14:23;15.00;;;7.32;;
73670;SDS011;61968;48.178;11.566;2024-03-08T14:16:53;14.82;;;7.70;;
73670;SDS011;61968;48.178;11.566;2024-03-08T14:19:23;15.10;;;7.10;;
73670;SDS011;61968;48.178;11.566;2024-03-08T14:21:49;13.23;;;7.47;;
73670;SDS011;61968;48.178;11.566;2024-03-08T14:24:18;11.05;;;6.78;;
73670;SDS011;61968;48.178;11.566;2024-03-08T14:26:46;11.48;;;7.72;;
73670;SDS011;61968;48.178;11.566;2024-03-08T14:29:14;13.90;;;7.45;;
73670;SDS011;61968;48.178;11.566;2024-03-08T14:31:40;16.48;;;7.40;;
73670;SDS011;61968;48.178;11.566;2024-03-08T14:34:08;15.05;;;7.97;;
73670;SDS011;61968;48.178;11.566;2024-03-08T14:36:35;12.38;;;6.93;;
73670;SDS011;61968;48.178;11.566;2024-03-08T14:39:02;12.00;;;7.55;;
73670;SDS011;61968;48.178;11.566;2024-03-08T14:41:29;13.52;;;6.78;;
73670;SDS011;61968;48.178;11.566;2024-03-08T14:43:57;14.98;;;7.18;;
73670;SDS011;61968;48.178;11.566;2024-03-08T14:46:25;15.98;;;7.63;;
73670;SDS011;61968;48.178;11.566;2024-03-08T14:48:52;14.02;;;7.50;;
73670;SDS011;61968;48.178;11.566;2024-03-08T14:51:19;14.32;;;7.15;;
73670;SDS011;61968;48.178;11.566;2024-03-08T14:53:47;15.05;;;7.50;;
73670;SDS011;61968;48.178;11.566;2024-03-08T14:56:14;11.85;;;6.65;;
73670;SDS011;61968;48.178;11.566;2024-03-08T14:58:42;11.07;;;6.53;;
73670;SDS011;61968;48.178;11.566;2024-03-08T15:01:11;14.80;;;6.78;;
73670;SDS011;61968;48.178;11.566;2024-03-08T15:03:39;14.52;;;7.05;;
73670;SDS011;61968;48.178;11.566;2024-03-08T15:06:05;12.98;;;7.70;;
73670;SDS011;61968;48.178;11.566;2024-03-08T15:08:34;15.68;;;7.60;;
73670;SDS011;61968;48.178;11.566;2024-03-08T15:11:01;13.70;;;7.45;;
73670;SDS011;61968;48.178;11.566;2024-03-08T15:13:28;13.23;;;6.38;;
73670;SDS011;61968;48.178;11.566;2024-03-08T15:16:04;11.82;;;5.95;;